Time;durP1;ratioP1;P1;durP2;ratioP2;P2;SDS_P1;SDS_P2;PMS_P1;PMS_P2;Temp;Humidity;BMP_temperature;BMP_pressure;BME280_temperature;BME280_humidity;BME280_pressure;Samples;Min_cycle;Max_cycle;Signal;HPM_P1;HPM_P2
2023/09/22 00:00:31;;;;;;;2.20;0.70;;;;;;;;;;5041112;28;20079;-79
2023/09/22 00:02:57;;;;;;;1.10;0.50;;;;;;;;;;5067784;28;20021;-80
2023/09/22 00:05:23;;;;;;;0.32;0.32;;;;;;;;;;5050273;28;20064;-77
2023/09/22 00:07:50;;;;;;;2.13;0.38;;;;;;;;;;5061216;28;20029;-79
2023/09/22 00:10:17;;;;;;;0.40;0.40;;;;;;;;;;5076269;28;20021;-77
2023/09/22 00:12:43;;;;;;;0.75;0.30;;;;;;;;;;5060862;28;20387;-78
2023/09/22 00:15:10;;;;;;;0.45;0.28;;;;;;;;;;5057137;28;20026;-79
2023/09/22 00:17:36;;;;;;;0.30;0.30;;;;;;;;;;5040424;28;20025;-79
2023/09/22 00:20:03;;;;;;;0.20;0.20;;;;;;;;;;5040875;28;20119;-79
2023/09/22 00:22:29;;;;;;;0.30;0.30;;;;;;;;;;5043847;28;20037;-77
2023/09/22 00:24:55;;;;;;;0.30;0.30;;;;;;;;;;5056598;28;20013;-77
2023/09/22 00:27:21;;;;;;;0.32;0.32;;;;;;;;;;5042266;28;20112;-78
2023/09/22 00:29:48;;;;;;;0.40;0.40;;;;;;;;;;5061605;28;20051;-77
2023/09/22 00:32:14;;;;;;;0.30;0.30;;;;;;;;;;5073265;28;20047;-77
2023/09/22 00:34:40;;;;;;;3.70;0.30;;;;;;;;;;5065503;28;20092;-78
2023/09/22 00:37:06;;;;;;;0.30;0.30;;;;;;;;;;5055083;28;20025;-78
2023/09/22 00:39:32;;;;;;;0.90;0.30;;;;;;;;;;5054011;28;20029;-79
2023/09/22 00:41:59;;;;;;;0.30;0.30;;;;;;;;;;5055616;28;20097;-77
2023/09/22 00:44:25;;;;;;;0.20;0.20;;;;;;;;;;5059062;28;20013;-77
2023/09/22 00:46:51;;;;;;;0.20;0.20;;;;;;;;;;5074878;28;20035;-77
2023/09/22 00:49:18;;;;;;;0.10;0.10;;;;;;;;;;5072621;28;20055;-78
2023/09/22 00:51:45;;;;;;;0.13;0.13;;;;;;;;;;5071306;28;20025;-79
2023/09/22 00:54:11;;;;;;;0.82;0.38;;;;;;;;;;5071794;28;20036;-78
2023/09/22 00:56:37;;;;;;;0.20;0.20;;;;;;;;;;5070134;28;20067;-79
2023/09/22 00:59:05;;;;;;;0.15;0.15;;;;;;;;;;5072147;28;20021;-78
2023/09/22 01:01:31;;;;;;;0.20;0.20;;;;;;;;;;5071985;28;20514;-77
2023/09/22 01:03:57;;;;;;;0.20;0.20;;;;;;;;;;5070642;28;20084;-77
2023/09/22 01:06:23;;;;;;;0.30;0.30;;;;;;;;;;5058748;28;20021;-76
2023/09/22 01:08:49;;;;;;;0.20;0.20;;;;;;;;;;5056360;28;20021;-77
2023/09/22 01:11:15;;;;;;;0.30;0.30;;;;;;;;;;5070382;28;20095;-79
2023/09/22 01:13:42;;;;;;;0.60;0.30;;;;;;;;;;5071934;28;20033;-77
2023/09/22 01:16:08;;;;;;;0.13;0.13;;;;;;;;;;5062982;28;20021;-77
2023/09/22 01:18:34;;;;;;;0.30;0.30;;;;;;;;;;5055827;28;20029;-76
2023/09/22 01:21:00;;;;;;;0.35;0.28;;;;;;;;;;5069225;28;20077;-78
2023/09/22 01:23:26;;;;;;;0.40;0.30;;;;;;;;;;5074353;28;20021;-77
2023/09/22 01:25:53;;;;;;;1.00;0.30;;;;;;;;;;5071771;28;20052;-78
2023/09/22 01:28:19;;;;;;;0.17;0.17;;;;;;;;;;5069253;28;20051;-78
2023/09/22 01:30:45;;;;;;;0.47;0.30;;;;;;;;;;5069912;28;20021;-79
2023/09/22 01:33:11;;;;;;;0.20;0.20;;;;;;;;;;5068666;28;20025;-79
2023/09/22 01:35:37;;;;;;;0.40;0.40;;;;;;;;;;5060946;28;20041;-78
2023/09/22 01:38:14;;;;;;;0.32;0.30;;;;;;;;;;5053871;28;20078;-78
2023/09/22 01:40:41;;;;;;;0.30;0.30;;;;;;;;;;5053703;28;20118;-77
2023/09/22 01:43:07;;;;;;;0.30;0.30;;;;;;;;;;5052402;28;20033;-78
2023/09/22 01:45:34;;;;;;;0.20;0.20;;;;;;;;;;5067805;28;20029;-78
2023/09/22 01:48:00;;;;;;;0.85;0.30;;;;;;;;;;5050862;28;20049;-79
2023/09/22 01:50:26;;;;;;;0.60;0.60;;;;;;;;;;5047754;28;20022;-78
2023/09/22 01:52:52;;;;;;;0.63;0.30;;;;;;;;;;5051247;28;20100;-79
2023/09/22 01:55:19;;;;;;;0.30;0.28;;;;;;;;;;5064940;28;20032;-78
2023/09/22 01:57:51;;;;;;;0.47;0.30;;;;;;;;;;5065116;28;20035;-78
2023/09/22 02:00:18;;;;;;;;;;;;;;;;;;5065182;28;20045;-79
2023/09/22 02:02:45;;;;;;;0.40;0.38;;;;;;;;;;5054160;28;19909;-79
2023/09/22 02:05:12;;;;;;;0.30;0.30;;;;;;;;;;5059816;28;20033;-78
2023/09/22 02:07:38;;;;;;;0.38;0.38;;;;;;;;;;5061064;28;20075;-78
2023/09/22 02:10:05;;;;;;;0.82;0.30;;;;;;;;;;5071966;28;20032;-78
2023/09/22 02:12:32;;;;;;;0.30;0.30;;;;;;;;;;5044436;28;20033;-79
2023/09/22 02:15:00;;;;;;;0.30;0.30;;;;;;;;;;5059036;28;20029;-78
2023/09/22 02:17:26;;;;;;;0.85;0.20;;;;;;;;;;5062839;28;20112;-80
2023/09/22 02:19:52;;;;;;;0.25;0.25;;;;;;;;;;5074342;28;20067;-76
2023/09/22 02:22:18;;;;;;;0.15;0.15;;;;;;;;;;5071208;28;20048;-79
2023/09/22 02:24:44;;;;;;;0.20;0.20;;;;;;;;;;5050854;28;20034;-79
2023/09/22 02:27:11;;;;;;;0.30;0.30;;;;;;;;;;5042842;28;20494;-78
2023/09/22 02:29:37;;;;;;;0.40;0.30;;;;;;;;;;5049409;28;20072;-77
2023/09/22 02:32:03;;;;;;;0.40;0.40;;;;;;;;;;5059943;28;20029;-78
2023/09/22 02:34:29;;;;;;;0.65;0.20;;;;;;;;;;5049222;28;20057;-78
2023/09/22 02:36:55;;;;;;;0.30;0.28;;;;;;;;;;5042895;28;20404;-78
2023/09/22 02:39:22;;;;;;;1.40;0.30;;;;;;;;;;5065448;28;20033;-78
2023/09/22 02:41:48;;;;;;;0.22;0.22;;;;;;;;;;5053095;28;20078;-79
2023/09/22 02:44:15;;;;;;;0.30;0.30;;;;;;;;;;5062210;28;20053;-80
2023/09/22 02:46:42;;;;;;;0.40;0.40;;;;;;;;;;5064503;28;20017;-81
2023/09/22 02:49:08;;;;;;;0.30;0.30;;;;;;;;;;5062224;28;20025;-82
2023/09/22 02:51:35;;;;;;;0.60;0.60;;;;;;;;;;5069843;28;20021;-81
2023/09/22 02:54:01;;;;;;;0.52;0.52;;;;;;;;;;5054033;28;20341;-79
2023/09/22 02:56:27;;;;;;;0.30;0.30;;;;;;;;;;5054098;28;20044;-80
2023/09/22 02:58:56;;;;;;;0.30;0.30;;;;;;;;;;5056501;28;20017;-78
2023/09/22 03:01:24;;;;;;;0.30;0.25;;;;;;;;;;5051825;28;20025;-81
2023/09/22 03:03:50;;;;;;;0.25;0.25;;;;;;;;;;5072717;28;20017;-81
2023/09/22 03:06:18;;;;;;;0.40;0.25;;;;;;;;;;5064980;28;20032;-79
2023/09/22 03:08:47;;;;;;;0.47;0.40;;;;;;;;;;5068972;28;20453;-81
2023/09/22 03:11:13;;;;;;;0.40;0.40;;;;;;;;;;5062143;28;20075;-81
2023/09/22 03:13:39;;;;;;;0.20;0.20;;;;;;;;;;5080246;28;20053;-82
2023/09/22 03:16:06;;;;;;;0.30;0.30;;;;;;;;;;5081461;28;20096;-80
2023/09/22 03:18:32;;;;;;;0.40;0.40;;;;;;;;;;5069983;28;20029;-81
2023/09/22 03:20:58;;;;;;;0.30;0.30;;;;;;;;;;5073932;28;20040;-82
2023/09/22 03:23:24;;;;;;;0.85;0.40;;;;;;;;;;5068822;28;20017;-81
2023/09/22 03:25:50;;;;;;;0.40;0.30;;;;;;;;;;5066877;28;20036;-82
2023/09/22 03:28:16;;;;;;;0.40;0.40;;;;;;;;;;5049721;28;20061;-82
2023/09/22 03:30:43;;;;;;;0.40;0.40;;;;;;;;;;5052550;28;20041;-83
2023/09/22 03:33:09;;;;;;;0.40;0.40;;;;;;;;;;5072586;28;20537;-81
2023/09/22 03:35:38;;;;;;;0.88;0.40;;;;;;;;;;5066393;28;20025;-82
2023/09/22 03:38:05;;;;;;;0.50;0.47;;;;;;;;;;5064407;28;20032;-82
2023/09/22 03:40:32;;;;;;;0.35;0.32;;;;;;;;;;5063772;28;20024;-83
2023/09/22 03:43:03;;;;;;;0.95;0.35;;;;;;;;;;5065138;28;20143;-82
2023/09/22 03:45:29;;;;;;;0.22;0.22;;;;;;;;;;5053869;28;20025;-82
2023/09/22 03:47:56;;;;;;;0.73;0.50;;;;;;;;;;5046481;28;20029;-82
2023/09/22 03:50:22;;;;;;;0.40;0.40;;;;;;;;;;5060391;28;20067;-82
2023/09/22 03:52:48;;;;;;;0.25;0.25;;;;;;;;;;5061450;28;20507;-81
2023/09/22 03:55:15;;;;;;;0.38;0.38;;;;;;;;;;5059768;28;20029;-82
2023/09/22 03:57:41;;;;;;;0.40;0.22;;;;;;;;;;5050735;28;20052;-81
2023/09/22 04:00:17;;;;;;;0.63;0.30;;;;;;;;;;5054654;28;20091;-83
2023/09/22 04:02:43;;;;;;;0.30;0.30;;;;;;;;;;5054804;28;20029;-82
2023/09/22 04:05:11;;;;;;;0.40;0.40;;;;;;;;;;5065030;28;20395;-81
2023/09/22 04:07:38;;;;;;;0.35;0.35;;;;;;;;;;5061145;28;20535;-80
2023/09/22 04:10:04;;;;;;;0.40;0.40;;;;;;;;;;5052645;28;20036;-82
2023/09/22 04:12:30;;;;;;;1.23;0.43;;;;;;;;;;5048449;28;20053;-81
2023/09/22 04:14:56;;;;;;;0.40;0.40;;;;;;;;;;5060084;28;20108;-82
2023/09/22 04:17:24;;;;;;;0.95;0.40;;;;;;;;;;5076822;28;20025;-81
2023/09/22 04:19:50;;;;;;;1.08;0.40;;;;;;;;;;5060025;28;20047;-79
2023/09/22 04:22:18;;;;;;;0.70;0.45;;;;;;;;;;5059111;28;20080;-80
2023/09/22 04:24:59;;;;;;;0.40;0.30;;;;;;;;;;5053947;28;20029;-78
2023/09/22 04:27:32;;;;;;;1.27;0.40;;;;;;;;;;5052035;28;20021;-78
2023/09/22 04:30:02;;;;;;;0.43;0.28;;;;;;;;;;5071417;28;20020;-83
2023/09/22 04:32:33;;;;;;;0.20;0.20;;;;;;;;;;5069272;28;20021;-84
2023/09/22 04:34:59;;;;;;;0.28;0.28;;;;;;;;;;5056381;28;20029;-81
2023/09/22 04:37:25;;;;;;;0.32;0.32;;;;;;;;;;5063994;28;20044;-81
2023/09/22 04:39:55;;;;;;;0.20;0.20;;;;;;;;;;5060816;28;20036;-81
2023/09/22 04:42:24;;;;;;;0.40;0.40;;;;;;;;;;5060401;28;20040;-82
2023/09/22 04:44:51;;;;;;;0.40;0.40;;;;;;;;;;5047972;28;20025;-80
2023/09/22 04:47:17;;;;;;;0.30;0.13;;;;;;;;;;5055064;28;20395;-80
2023/09/22 04:49:43;;;;;;;0.25;0.20;;;;;;;;;;5057729;28;20021;-81
2023/09/22 04:52:10;;;;;;;0.25;0.20;;;;;;;;;;5064638;28;20028;-81
2023/09/22 04:54:36;;;;;;;0.52;0.47;;;;;;;;;;5064278;28;20029;-80
2023/09/22 04:57:03;;;;;;;0.38;0.32;;;;;;;;;;5064783;28;20071;-81
2023/09/22 04:59:29;;;;;;;0.40;0.40;;;;;;;;;;5059312;28;20054;-80
2023/09/22 05:01:59;;;;;;;1.10;0.32;;;;;;;;;;5067316;28;20100;-83
2023/09/22 05:04:25;;;;;;;0.40;0.40;;;;;;;;;;5058284;28;20040;-80
2023/09/22 05:06:52;;;;;;;0.20;0.20;;;;;;;;;;5066204;28;20029;-81
2023/09/22 05:09:18;;;;;;;1.08;0.50;;;;;;;;;;5065807;28;20089;-81
2023/09/22 05:11:44;;;;;;;0.50;0.50;;;;;;;;;;5067060;28;20024;-81
2023/09/22 05:14:10;;;;;;;0.35;0.35;;;;;;;;;;5064987;28;20032;-83
2023/09/22 05:16:37;;;;;;;0.38;0.38;;;;;;;;;;5049363;28;20033;-82
2023/09/22 05:19:03;;;;;;;0.47;0.32;;;;;;;;;;5067520;28;20028;-81
2023/09/22 05:21:30;;;;;;;1.08;0.80;;;;;;;;;;5070117;28;20067;-80
2023/09/22 05:23:57;;;;;;;0.50;0.50;;;;;;;;;;5068232;28;20033;-81
2023/09/22 05:26:23;;;;;;;0.45;0.40;;;;;;;;;;5059944;28;20025;-81
2023/09/22 05:28:50;;;;;;;0.50;0.35;;;;;;;;;;5054307;28;20507;-81
2023/09/22 05:31:16;;;;;;;0.85;0.50;;;;;;;;;;5067206;28;20069;-81
2023/09/22 05:33:43;;;;;;;0.55;0.47;;;;;;;;;;5067396;28;20020;-82
2023/09/22 05:36:09;;;;;;;1.10;0.77;;;;;;;;;;5055553;28;20047;-80
2023/09/22 05:38:36;;;;;;;0.40;0.40;;;;;;;;;;5045325;28;20033;-81
2023/09/22 05:41:03;;;;;;;0.40;0.40;;;;;;;;;;5045944;28;20097;-81
2023/09/22 05:43:31;;;;;;;0.50;0.43;;;;;;;;;;5045912;28;20396;-83
2023/09/22 05:45:57;;;;;;;0.60;0.60;;;;;;;;;;5048325;28;20022;-82
2023/09/22 05:48:23;;;;;;;0.60;0.43;;;;;;;;;;5055398;28;20013;-80
2023/09/22 05:50:56;;;;;;;1.73;0.60;;;;;;;;;;5052991;28;20199;-80
2023/09/22 05:53:25;;;;;;;0.55;0.55;;;;;;;;;;5050227;28;20045;-80
2023/09/22 05:55:51;;;;;;;0.57;0.57;;;;;;;;;;5051159;28;20025;-82
2023/09/22 05:58:18;;;;;;;0.40;0.40;;;;;;;;;;5072216;28;20132;-80
2023/09/22 06:00:44;;;;;;;0.52;0.52;;;;;;;;;;5071426;28;20053;-80
2023/09/22 06:03:11;;;;;;;0.57;0.55;;;;;;;;;;5070948;28;20021;-81
2023/09/22 06:05:39;;;;;;;1.13;0.65;;;;;;;;;;5069990;28;20024;-80
2023/09/22 06:08:05;;;;;;;0.40;0.40;;;;;;;;;;5055754;28;20044;-79
2023/09/22 06:10:32;;;;;;;1.20;0.63;;;;;;;;;;5051710;28;20100;-80
2023/09/22 06:12:59;;;;;;;1.30;0.70;;;;;;;;;;5049657;28;20036;-79
2023/09/22 06:15:25;;;;;;;2.20;0.73;;;;;;;;;;5051843;28;20032;-82
2023/09/22 06:17:51;;;;;;;0.85;0.60;;;;;;;;;;5053240;28;20073;-82
2023/09/22 06:20:18;;;;;;;2.20;0.75;;;;;;;;;;5051392;28;20108;-79
2023/09/22 06:22:47;;;;;;;1.25;0.82;;;;;;;;;;5052114;28;20021;-79
2023/09/22 06:25:14;;;;;;;2.50;0.70;;;;;;;;;;5051910;28;20025;-79
2023/09/22 06:27:41;;;;;;;0.75;0.65;;;;;;;;;;5048499;28;20044;-80
2023/09/22 06:30:11;;;;;;;0.80;0.57;;;;;;;;;;5060211;28;20021;-82
2023/09/22 06:32:40;;;;;;;0.80;0.65;;;;;;;;;;5069513;28;20085;-80
2023/09/22 06:35:09;;;;;;;0.70;0.70;;;;;;;;;;5069901;28;20072;-80
2023/09/22 06:37:36;;;;;;;0.80;0.60;;;;;;;;;;5083380;28;20116;-80
2023/09/22 06:40:09;;;;;;;1.27;0.63;;;;;;;;;;5068894;28;20021;-80
2023/09/22 06:42:36;;;;;;;0.82;0.60;;;;;;;;;;5068646;28;20067;-81
2023/09/22 06:45:04;;;;;;;1.27;0.80;;;;;;;;;;5069254;28;20103;-79
2023/09/22 06:47:30;;;;;;;0.73;0.73;;;;;;;;;;5068023;28;20021;-78
2023/09/22 06:49:59;;;;;;;0.65;0.60;;;;;;;;;;5048788;28;20029;-81
2023/09/22 06:52:39;;;;;;;2.45;0.80;;;;;;;;;;5051271;28;20021;-82
2023/09/22 06:55:08;;;;;;;1.10;0.50;;;;;;;;;;5054715;28;20042;-81
2023/09/22 06:57:36;;;;;;;1.10;0.68;;;;;;;;;;5057192;28;20006;-79
2023/09/22 07:00:15;;;;;;;1.08;0.50;;;;;;;;;;5075719;28;20029;-81
2023/09/22 07:02:42;;;;;;;1.75;0.70;;;;;;;;;;5077611;28;20053;-79
2023/09/22 07:05:09;;;;;;;0.77;0.65;;;;;;;;;;5071570;28;20029;-79
2023/09/22 07:07:37;;;;;;;0.75;0.65;;;;;;;;;;5069797;28;20052;-81
2023/09/22 07:10:04;;;;;;;0.85;0.50;;;;;;;;;;5049547;28;20052;-80
2023/09/22 07:12:31;;;;;;;0.80;0.60;;;;;;;;;;5058829;28;20097;-80
2023/09/22 07:14:57;;;;;;;1.38;0.60;;;;;;;;;;5066839;28;20064;-82
2023/09/22 07:17:23;;;;;;;0.80;0.45;;;;;;;;;;5058369;28;20056;-80
2023/09/22 07:19:49;;;;;;;0.60;0.60;;;;;;;;;;5064339;28;20037;-81
2023/09/22 07:22:16;;;;;;;1.17;0.50;;;;;;;;;;5056948;28;20013;-81
2023/09/22 07:24:42;;;;;;;0.50;0.50;;;;;;;;;;5063362;28;20025;-81
2023/09/22 07:27:08;;;;;;;1.10;0.50;;;;;;;;;;5065597;28;20092;-81
2023/09/22 07:29:34;;;;;;;0.98;0.40;;;;;;;;;;5062250;28;20027;-80
2023/09/22 07:32:01;;;;;;;0.80;0.50;;;;;;;;;;5068473;28;20032;-80
2023/09/22 07:34:27;;;;;;;0.40;0.40;;;;;;;;;;5085182;28;20029;-81
2023/09/22 07:36:53;;;;;;;1.00;0.55;;;;;;;;;;5069770;28;20021;-81
2023/09/22 07:39:21;;;;;;;0.55;0.50;;;;;;;;;;5068664;28;20028;-81
2023/09/22 07:41:47;;;;;;;0.55;0.30;;;;;;;;;;5068679;28;20017;-81
2023/09/22 07:44:14;;;;;;;0.65;0.50;;;;;;;;;;5067526;28;20021;-80
2023/09/22 07:46:41;;;;;;;1.33;0.50;;;;;;;;;;5068636;28;20029;-81
2023/09/22 07:49:07;;;;;;;0.63;0.30;;;;;;;;;;5068211;28;20013;-81
2023/09/22 07:51:33;;;;;;;1.25;0.60;;;;;;;;;;5066143;28;20112;-81
2023/09/22 07:54:00;;;;;;;0.40;0.40;;;;;;;;;;5067898;28;20112;-82
2023/09/22 07:56:27;;;;;;;0.50;0.50;;;;;;;;;;5067064;28;20045;-82
2023/09/22 07:58:53;;;;;;;0.88;0.60;;;;;;;;;;5066082;28;20031;-81
2023/09/22 08:01:19;;;;;;;1.38;0.80;;;;;;;;;;5066472;28;20056;-80
2023/09/22 08:03:46;;;;;;;0.70;0.38;;;;;;;;;;5067867;28;20027;-81
2023/09/22 08:06:12;;;;;;;0.85;0.60;;;;;;;;;;5068169;28;20017;-80
2023/09/22 08:08:39;;;;;;;0.50;0.50;;;;;;;;;;5052825;28;20017;-81
2023/09/22 08:11:05;;;;;;;0.35;0.35;;;;;;;;;;5069174;28;20029;-82
2023/09/22 08:13:33;;;;;;;0.65;0.65;;;;;;;;;;5073662;28;20044;-79
2023/09/22 08:16:00;;;;;;;1.23;0.70;;;;;;;;;;5071264;28;20025;-80
2023/09/22 08:18:26;;;;;;;0.85;0.38;;;;;;;;;;5067196;28;20029;-80
2023/09/22 08:20:54;;;;;;;0.82;0.40;;;;;;;;;;5057572;28;20025;-81
2023/09/22 08:23:20;;;;;;;0.63;0.50;;;;;;;;;;5057864;28;20101;-82
2023/09/22 08:25:46;;;;;;;0.77;0.40;;;;;;;;;;5070787;28;20050;-83
2023/09/22 08:28:12;;;;;;;0.57;0.40;;;;;;;;;;5068230;28;20059;-81
2023/09/22 08:30:39;;;;;;;0.40;0.32;;;;;;;;;;5066540;28;20021;-81
2023/09/22 08:33:07;;;;;;;0.40;0.40;;;;;;;;;;5067542;28;20042;-80
2023/09/22 08:35:34;;;;;;;0.30;0.30;;;;;;;;;;5071145;28;20045;-81
2023/09/22 08:38:04;;;;;;;0.40;0.40;;;;;;;;;;5065958;28;20037;-81
2023/09/22 08:40:30;;;;;;;0.43;0.43;;;;;;;;;;5061735;28;20377;-80
2023/09/22 08:42:57;;;;;;;0.52;0.52;;;;;;;;;;5066111;28;20495;-81
2023/09/22 08:45:23;;;;;;;0.45;0.45;;;;;;;;;;5065819;28;20032;-81
2023/09/22 08:47:50;;;;;;;0.60;0.40;;;;;;;;;;5067954;28;20033;-81
2023/09/22 08:50:18;;;;;;;0.40;0.40;;;;;;;;;;5066331;28;20029;-81
2023/09/22 08:52:52;;;;;;;1.85;0.30;;;;;;;;;;5051702;28;20480;-82
2023/09/22 08:55:19;;;;;;;0.45;0.45;;;;;;;;;;5050785;28;20041;-80
2023/09/22 08:57:46;;;;;;;0.77;0.47;;;;;;;;;;5046785;28;20046;-81
2023/09/22 09:00:20;;;;;;;0.30;0.30;;;;;;;;;;5060572;28;20114;-81
2023/09/22 09:02:50;;;;;;;0.30;0.30;;;;;;;;;;5051252;28;20017;-81
2023/09/22 09:05:29;;;;;;;0.60;0.40;;;;;;;;;;5047997;28;20056;-81
2023/09/22 09:07:56;;;;;;;0.30;0.30;;;;;;;;;;5048679;28;20025;-81
2023/09/22 09:10:48;;;;;;;1.20;0.82;;;;;;;;;;5047956;28;20021;-81
2023/09/22 09:13:14;;;;;;;0.80;0.73;;;;;;;;;;5062457;28;20025;-80
2023/09/22 09:15:45;;;;;;;0.70;0.70;;;;;;;;;;5066411;28;20029;-81
2023/09/22 09:18:12;;;;;;;1.85;0.80;;;;;;;;;;5066366;28;20560;-80
2023/09/22 09:20:42;;;;;;;1.17;0.52;;;;;;;;;;5065596;28;20089;-82
2023/09/22 09:23:15;;;;;;;0.90;0.70;;;;;;;;;;5049470;28;20116;-80
2023/09/22 09:25:45;;;;;;;1.33;0.82;;;;;;;;;;5056900;28;20037;-80
2023/09/22 09:28:12;;;;;;;3.45;1.20;;;;;;;;;;5058225;28;20048;-81
2023/09/22 09:30:38;;;;;;;1.65;1.05;;;;;;;;;;5074717;28;20103;-81
2023/09/22 09:33:09;;;;;;;1.70;1.00;;;;;;;;;;5076531;28;20025;-80
2023/09/22 09:35:36;;;;;;;1.85;1.27;;;;;;;;;;5077130;28;20049;-80
2023/09/22 09:38:03;;;;;;;1.55;1.17;;;;;;;;;;5077539;28;20037;-81
2023/09/22 09:40:29;;;;;;;2.25;1.15;;;;;;;;;;5077609;28;20009;-79
2023/09/22 09:42:57;;;;;;;1.40;1.08;;;;;;;;;;5063589;28;20040;-79
2023/09/22 09:45:24;;;;;;;1.02;0.93;;;;;;;;;;5068166;28;20040;-82
2023/09/22 09:47:55;;;;;;;2.10;0.90;;;;;;;;;;5056836;28;20112;-80
2023/09/22 09:50:21;;;;;;;0.83;0.80;;;;;;;;;;5071974;28;20032;-81
2023/09/22 09:52:59;;;;;;;1.45;0.90;;;;;;;;;;5073816;28;20021;-80
2023/09/22 09:55:26;;;;;;;0.82;0.77;;;;;;;;;;5073013;28;20068;-81
2023/09/22 09:57:53;;;;;;;0.88;0.80;;;;;;;;;;5070656;28;20096;-82
2023/09/22 10:00:20;;;;;;;1.05;0.77;;;;;;;;;;5073349;28;20025;-81
2023/09/22 10:02:49;;;;;;;1.30;0.90;;;;;;;;;;5064633;28;20026;-81
2023/09/22 10:05:19;;;;;;;1.30;0.73;;;;;;;;;;5049559;28;20033;-82
2023/09/22 10:07:46;;;;;;;2.20;0.90;;;;;;;;;;5055956;28;20029;-80
2023/09/22 10:10:16;;;;;;;0.60;0.60;;;;;;;;;;5054091;28;20048;-80
2023/09/22 10:12:43;;;;;;;1.02;0.82;;;;;;;;;;5050874;28;20022;-81
2023/09/22 10:15:11;;;;;;;1.00;0.70;;;;;;;;;;5050935;28;20093;-80
2023/09/22 10:17:38;;;;;;;1.15;0.70;;;;;;;;;;5049249;28;20085;-80
2023/09/22 10:20:14;;;;;;;1.10;0.98;;;;;;;;;;5048444;28;20089;-81
2023/09/22 10:22:41;;;;;;;1.05;0.85;;;;;;;;;;5049851;28;20214;-80
2023/09/22 10:25:14;;;;;;;2.50;0.63;;;;;;;;;;5049755;28;20089;-81
2023/09/22 10:27:56;;;;;;;0.75;0.60;;;;;;;;;;5053342;28;20033;-81
2023/09/22 10:30:25;;;;;;;0.47;0.47;;;;;;;;;;5069759;28;20162;-82
2023/09/22 10:33:11;;;;;;;0.73;0.70;;;;;;;;;;5075292;28;20013;-80
2023/09/22 10:35:40;;;;;;;0.73;0.70;;;;;;;;;;5055781;28;20030;-80
2023/09/22 10:38:09;;;;;;;1.90;0.70;;;;;;;;;;5056303;28;20233;-80
2023/09/22 10:40:36;;;;;;;0.70;0.65;;;;;;;;;;5055189;28;20013;-79
2023/09/22 10:43:03;;;;;;;1.05;0.63;;;;;;;;;;5054821;28;20032;-80
2023/09/22 10:45:29;;;;;;;0.63;0.40;;;;;;;;;;5073763;28;20033;-80
2023/09/22 10:47:58;;;;;;;1.50;0.38;;;;;;;;;;5075417;28;20029;-80
2023/09/22 10:50:34;;;;;;;0.52;0.47;;;;;;;;;;5075731;28;20033;-81
2023/09/22 10:53:02;;;;;;;0.75;0.50;;;;;;;;;;5076690;28;20022;-80
2023/09/22 10:55:29;;;;;;;1.05;0.60;;;;;;;;;;5062635;28;20031;-80
2023/09/22 10:57:55;;;;;;;0.82;0.82;;;;;;;;;;5055843;28;20040;-80
2023/09/22 11:00:22;;;;;;;0.77;0.77;;;;;;;;;;5069507;28;20033;-80
2023/09/22 11:02:49;;;;;;;1.95;0.70;;;;;;;;;;5074113;28;20087;-79
2023/09/22 11:05:19;;;;;;;1.08;0.68;;;;;;;;;;5066884;28;20028;-80
2023/09/22 11:07:46;;;;;;;0.80;0.80;;;;;;;;;;5069460;28;20029;-79
2023/09/22 11:10:23;;;;;;;0.80;0.80;;;;;;;;;;5051220;28;20112;-79
2023/09/22 11:12:54;;;;;;;0.88;0.80;;;;;;;;;;5054049;28;20294;-80
2023/09/22 11:15:21;;;;;;;0.90;0.70;;;;;;;;;;5071520;28;20067;-80
2023/09/22 11:17:47;;;;;;;0.70;0.70;;;;;;;;;;5072113;28;20235;-81
2023/09/22 11:20:31;;;;;;;1.30;0.90;;;;;;;;;;5072200;28;20081;-81
2023/09/22 11:22:58;;;;;;;2.10;0.95;;;;;;;;;;5071421;28;20024;-81
2023/09/22 11:25:26;;;;;;;1.42;1.00;;;;;;;;;;5070002;28;20036;-80
2023/09/22 11:27:53;;;;;;;0.85;0.60;;;;;;;;;;5070426;28;20078;-81
2023/09/22 11:30:25;;;;;;;0.88;0.70;;;;;;;;;;5068495;28;20108;-80
2023/09/22 11:32:51;;;;;;;;;;;;;;;;;;5074931;28;20036;-80
2023/09/22 11:38:27;;;;;;;0.70;0.70;;;;;;;;;;5070664;28;20492;-82
2023/09/22 11:41:08;;;;;;;1.33;0.90;;;;;;;;;;5068682;28;20044;-80
2023/09/22 11:43:37;;;;;;;1.95;0.77;;;;;;;;;;5065803;28;20019;-80
2023/09/22 11:46:10;;;;;;;2.10;0.68;;;;;;;;;;5058839;28;20025;-82
2023/09/22 11:49:05;;;;;;;1.52;0.93;;;;;;;;;;5047050;28;20034;-81
2023/09/22 11:51:41;;;;;;;1.90;0.85;;;;;;;;;;5048406;28;20068;-81
2023/09/22 11:54:11;;;;;;;1.98;0.90;;;;;;;;;;5047072;28;20085;-82
2023/09/22 11:56:37;;;;;;;0.98;0.85;;;;;;;;;;5053230;28;20032;-81
2023/09/22 11:59:09;;;;;;;0.85;0.70;;;;;;;;;;5067365;28;20036;-80
2023/09/22 12:01:35;;;;;;;;;;;;;;;;;;5061774;28;20078;-80
2023/09/22 12:04:01;;;;;;;1.00;0.90;;;;;;;;;;5055517;28;19979;-80
2023/09/22 12:06:28;;;;;;;1.08;0.70;;;;;;;;;;5076550;28;20009;-80
2023/09/22 12:08:54;;;;;;;2.22;0.65;;;;;;;;;;5066614;28;20446;-81
2023/09/22 12:11:23;;;;;;;0.90;0.85;;;;;;;;;;5065273;28;20032;-79
2023/09/22 12:13:52;;;;;;;1.05;0.60;;;;;;;;;;5063077;28;20017;-79
2023/09/22 12:16:18;;;;;;;0.70;0.70;;;;;;;;;;5042581;28;20025;-80
2023/09/22 12:18:44;;;;;;;0.80;0.60;;;;;;;;;;5048402;28;20022;-82
2023/09/22 12:21:11;;;;;;;0.50;0.50;;;;;;;;;;5048221;28;20031;-81
2023/09/22 12:23:37;;;;;;;1.15;0.65;;;;;;;;;;5047301;28;20093;-81
2023/09/22 12:26:03;;;;;;;1.33;0.70;;;;;;;;;;5064547;28;20104;-81
2023/09/22 12:28:29;;;;;;;0.52;0.43;;;;;;;;;;5066482;28;20369;-81
2023/09/22 12:30:55;;;;;;;0.40;0.40;;;;;;;;;;5066119;28;20401;-81
2023/09/22 12:33:22;;;;;;;0.88;0.55;;;;;;;;;;5063922;28;20056;-81
2023/09/22 12:35:50;;;;;;;1.58;0.90;;;;;;;;;;5059208;28;20023;-81
2023/09/22 12:38:20;;;;;;;0.95;0.77;;;;;;;;;;5068873;28;20223;-83
2023/09/22 12:40:46;;;;;;;0.68;0.68;;;;;;;;;;5066460;28;20422;-80
2023/09/22 12:43:12;;;;;;;0.95;0.80;;;;;;;;;;5068493;28;20039;-82
2023/09/22 12:45:42;;;;;;;2.25;0.80;;;;;;;;;;5060051;28;20029;-81
2023/09/22 12:48:08;;;;;;;2.70;0.75;;;;;;;;;;5047358;28;20040;-81
2023/09/22 12:50:34;;;;;;;0.70;0.70;;;;;;;;;;5060814;28;20013;-80
2023/09/22 12:53:00;;;;;;;1.48;0.73;;;;;;;;;;5047908;28;20037;-81
2023/09/22 12:55:27;;;;;;;0.68;0.60;;;;;;;;;;5049788;28;20034;-81
2023/09/22 12:57:53;;;;;;;0.75;0.75;;;;;;;;;;5071707;28;20092;-81
2023/09/22 13:00:19;;;;;;;0.75;0.70;;;;;;;;;;5070372;28;20017;-81
2023/09/22 13:02:45;;;;;;;0.45;0.40;;;;;;;;;;5071244;28;20009;-81
2023/09/22 13:05:13;;;;;;;0.45;0.45;;;;;;;;;;5071350;28;20064;-80
2023/09/22 13:07:39;;;;;;;1.65;0.50;;;;;;;;;;5053930;28;20022;-82
2023/09/22 13:10:07;;;;;;;0.70;0.70;;;;;;;;;;5059425;28;20085;-82
2023/09/22 13:12:37;;;;;;;0.60;0.50;;;;;;;;;;5062149;28;20379;-80
2023/09/22 13:15:03;;;;;;;0.57;0.40;;;;;;;;;;5049759;28;20026;-80
2023/09/22 13:17:29;;;;;;;0.40;0.40;;;;;;;;;;5064536;28;20036;-82
2023/09/22 13:19:55;;;;;;;0.40;0.40;;;;;;;;;;5069917;28;20097;-80
2023/09/22 13:22:22;;;;;;;2.05;0.60;;;;;;;;;;5070717;28;20039;-80
2023/09/22 13:24:48;;;;;;;0.50;0.47;;;;;;;;;;5069897;28;20028;-81
2023/09/22 13:27:15;;;;;;;0.60;0.60;;;;;;;;;;5071728;28;20040;-81
2023/09/22 13:29:41;;;;;;;0.68;0.50;;;;;;;;;;5068872;28;20091;-81
2023/09/22 13:32:09;;;;;;;0.63;0.60;;;;;;;;;;5048838;28;20022;-82
2023/09/22 13:34:35;;;;;;;0.22;0.22;;;;;;;;;;5049521;28;20033;-82
2023/09/22 13:37:02;;;;;;;0.57;0.40;;;;;;;;;;5052277;28;20036;-80
2023/09/22 13:39:29;;;;;;;0.30;0.30;;;;;;;;;;5067926;28;20021;-83
2023/09/22 13:41:56;;;;;;;0.52;0.47;;;;;;;;;;5068079;28;20028;-80
2023/09/22 13:44:22;;;;;;;1.98;0.50;;;;;;;;;;5068916;28;20070;-80
2023/09/22 13:46:48;;;;;;;0.43;0.20;;;;;;;;;;5067465;28;20037;-80
2023/09/22 13:49:14;;;;;;;0.45;0.45;;;;;;;;;;5068790;28;20029;-81
2023/09/22 13:51:41;;;;;;;0.40;0.40;;;;;;;;;;5069156;28;20029;-80
2023/09/22 13:54:07;;;;;;;0.50;0.50;;;;;;;;;;5068890;28;20047;-81
2023/09/22 13:56:34;;;;;;;0.35;0.35;;;;;;;;;;5073010;28;20025;-79
2023/09/22 13:59:00;;;;;;;0.30;0.20;;;;;;;;;;5060316;28;20093;-82
2023/09/22 14:01:27;;;;;;;0.35;0.35;;;;;;;;;;5067547;28;20020;-81
2023/09/22 14:03:54;;;;;;;0.73;0.43;;;;;;;;;;5085965;28;20065;-80
2023/09/22 14:06:21;;;;;;;0.30;0.30;;;;;;;;;;5069893;28;20044;-81
2023/09/22 14:08:49;;;;;;;0.63;0.20;;;;;;;;;;5069205;28;20426;-79
2023/09/22 14:11:16;;;;;;;0.30;0.30;;;;;;;;;;5069665;28;20089;-80
2023/09/22 14:13:43;;;;;;;0.25;0.25;;;;;;;;;;5070251;28;20044;-80
2023/09/22 14:16:11;;;;;;;0.30;0.20;;;;;;;;;;5072002;28;20092;-80
2023/09/22 14:18:37;;;;;;;1.13;0.40;;;;;;;;;;5073218;28;20027;-81
2023/09/22 14:21:04;;;;;;;0.60;0.40;;;;;;;;;;5071121;28;20028;-80
2023/09/22 14:23:32;;;;;;;0.30;0.30;;;;;;;;;;5066737;28;20025;-80
2023/09/22 14:25:58;;;;;;;0.30;0.28;;;;;;;;;;5067541;28;20032;-81
2023/09/22 14:28:25;;;;;;;0.35;0.32;;;;;;;;;;5067314;28;20059;-81
2023/09/22 14:30:51;;;;;;;0.30;0.30;;;;;;;;;;5068508;28;20476;-81
2023/09/22 14:33:19;;;;;;;0.40;0.40;;;;;;;;;;5067350;28;20029;-86
2023/09/22 14:35:46;;;;;;;1.08;0.55;;;;;;;;;;5066430;28;20025;-81
2023/09/22 14:38:12;;;;;;;0.38;0.22;;;;;;;;;;5067203;28;20021;-80
2023/09/22 14:40:42;;;;;;;1.15;0.40;;;;;;;;;;5063998;28;20048;-81
2023/09/22 14:43:08;;;;;;;0.52;0.40;;;;;;;;;;5051106;28;20026;-80
2023/09/22 14:45:37;;;;;;;0.63;0.32;;;;;;;;;;5051676;28;20017;-78
2023/09/22 14:48:06;;;;;;;0.30;0.30;;;;;;;;;;5055639;28;20029;-80